Latest Weather Observations for Cressy

IDT60801

Issued at 9:05 pm EST Tuesday 2 September 2014 (issued every 30 minutes, with the page automatically refreshed every 10 minutes)

About weather observations | Map of weather stations | Latest weather observations for TAS | Other Formats
Station Details ID: 091306 Name: CRESSY RESEARCH STATION Lat: -41.73 Lon: 147.08 Height: 148.0 m
Data from the previous 72 hours. | See also: Recent months at Cressy
Date/Time
EST
Temp
°C
App
Temp
°C
Dew
Point
Rel
Hum
%
Delta-T
°C
Wind Press
QNH
hPa
Press
MSL
hPa
Rain
since 9 am
mm
Dir
 
Spd
km/h
Gust
km/h
Spd
kts
Gust
kts
02/09:00pm 6.1 1.3 2.4 77 1.5 SSE 17 28 9 15 - - 0.0
02/08:30pm 5.6 2.2 2.1 78 1.4 E 9 13 5 7 - - 0.0
02/08:00pm 7.6 3.5 2.5 70 2.1 SSE 13 20 7 11 - - 0.0
02/07:30pm 6.8 2.7 2.5 74 1.8 SSW 13 15 7 8 - - 0.0
02/07:00pm 7.6 3.2 2.7 71 2.1 SSW 15 20 8 11 - - 0.0
02/06:30pm 8.2 3.5 3.1 70 2.2 SSW 17 22 9 12 - - 0.0
02/06:00pm 9.0 3.4 3.6 69 2.4 SSW 22 32 12 17 - - 0.0
02/05:30pm 9.4 5.4 2.9 64 2.8 S 13 20 7 11 - - 0.0
02/05:00pm 10.8 6.1 3.4 60 3.3 S 17 26 9 14 - - 0.0
02/04:30pm 11.8 8.2 2.8 54 4.0 S 11 15 6 8 - - 0.0
02/04:00pm 12.3 7.3 1.3 47 4.7 SW 17 22 9 12 - - 0.0
02/03:30pm 12.5 6.6 1.8 48 4.6 SSW 22 30 12 16 - - 0.0
02/03:00pm 13.0 7.1 1.7 46 4.9 SSW 22 30 12 16 - - 0.0
02/02:30pm 12.6 6.3 1.6 47 4.7 SSW 24 35 13 19 - - 0.0
02/02:00pm 12.5 6.1 0.9 45 4.9 SSW 24 33 13 18 - - 0.0
02/01:30pm 12.5 5.9 2.1 49 4.5 SSW 26 37 14 20 - - 0.0
02/01:00pm 12.5 6.8 2.7 51 4.3 S 22 28 12 15 - - 0.0
02/12:30pm 12.2 7.7 2.1 50 4.4 S 15 30 8 16 - - 0.0
02/12:00pm 11.4 6.8 1.6 51 4.2 SSE 15 22 8 12 - - 0.0
02/11:30am 11.1 6.1 1.1 50 4.2 SSE 17 24 9 13 - - 0.0
02/11:00am 10.9 6.4 2.0 54 3.8 S 15 24 8 13 - - 0.0
02/10:30am 10.4 5.2 2.3 57 3.5 SSE 19 26 10 14 - - 0.0
02/10:00am 10.0 4.8 3.3 63 2.9 SSE 20 26 11 14 - - 0.0
02/09:30am 9.2 3.9 3.0 65 2.7 SSE 20 28 11 15 - - 0.0
02/09:00am 8.8 3.5 3.2 68 2.4 SSE 20 30 11 16 - - 5.8
02/08:30am 8.3 2.7 3.6 72 2.0 SSE 22 32 12 17 - - 5.8
02/08:00am 7.7 1.0 3.4 74 1.8 SSE 28 35 15 19 - - 5.8
02/07:30am 6.8 1.1 3.1 77 1.6 S 22 32 12 17 - - 5.8
02/07:00am 6.0 0.4 3.5 84 1.1 SSE 22 28 12 15 - - 5.8
02/06:30am 6.3 1.1 3.8 84 1.1 SSE 20 28 11 15 - - 5.8
02/06:00am 3.7 -1.1 2.8 94 0.4 SE 17 20 9 11 - - 5.8
02/05:30am 4.1 -0.1 3.7 97 0.2 SE 15 17 8 9 - - 5.8
02/05:00am 5.1 0.1 3.4 89 0.7 SE 19 20 10 11 - - 5.8
02/04:30am 4.7 0.0 3.2 90 0.6 SSE 17 20 9 11 - - 5.8
02/04:00am 4.9 1.3 2.9 87 0.8 SSE 11 13 6 7 - - 5.8
02/03:30am 5.3 1.4 3.6 89 0.7 S 13 17 7 9 - - 5.8
02/03:00am 5.1 1.0 4.4 95 0.3 SSE 15 19 8 10 - - 5.8
02/02:30am 5.3 1.7 4.9 97 0.2 SE 13 20 7 11 - - 5.8
02/02:00am 5.1 1.8 4.4 95 0.3 SSE 11 15 6 8 - - 5.8
02/01:30am 5.9 1.9 5.0 94 0.4 ESE 15 19 8 10 - - 5.8
02/01:00am 5.2 1.0 4.0 92 0.5 SE 15 19 8 10 - - 5.8
02/12:30am 5.8 1.9 3.6 86 0.9 SSE 13 17 7 9 - - 5.8
02/12:00am 5.5 2.1 4.2 91 0.6 S 11 15 6 8 - - 5.8
 
Date/Time
EST
Temp
°C
App
Temp
°C
Dew
Point
Rel
Hum
%
Delta-T
°C
Wind Press
QNH
hPa
Press
MSL
hPa
Rain
since 9 am
mm
Dir
 
Spd
km/h
Gust
km/h
Spd
kts
Gust
kts
01/11:30pm 6.6 3.5 5.6 93 0.4 S 11 15 6 8 - - 5.8
01/11:00pm 6.9 3.6 6.5 97 0.2 SSE 13 17 7 9 - - 5.8
01/10:30pm 8.0 3.6 7.2 95 0.4 SE 20 26 11 14 - - 5.8
01/10:00pm 7.6 3.7 7.3 98 0.1 SE 17 19 9 10 - - 5.8
01/09:30pm 7.8 3.6 7.4 97 0.2 SE 19 22 10 12 - - 5.8
01/09:00pm 8.4 4.0 7.2 92 0.6 SE 20 37 11 20 - - 5.8
01/08:30pm 8.6 4.2 7.5 93 0.5 SE 20 32 11 17 - - 5.8
01/08:00pm 8.7 4.0 7.9 95 0.4 SE 22 33 12 18 - - 5.8
01/07:30pm 9.2 3.5 6.6 84 1.2 SSE 26 37 14 20 - - 5.8
01/07:00pm 10.0 3.8 6.3 78 1.7 S 28 39 15 21 - - 5.8
01/06:30pm 10.1 5.0 7.7 85 1.2 SSE 24 32 13 17 - - 5.8
01/06:00pm 10.7 9.5 10.4 98 0.2 SE 7 24 4 13 - - 5.8
01/05:30pm 11.4 10.1 11.1 98 0.2 S 9 11 5 6 - - 5.8
01/05:00pm 11.6 10.3 11.3 98 0.2 N 9 15 5 8 - - 5.8
01/04:30pm 11.5 9.0 11.2 98 0.2 N 15 22 8 12 - - 5.8
01/04:00pm 11.7 8.9 11.4 98 0.2 N 17 20 9 11 - - 5.8
01/03:30pm 11.5 8.3 11.2 98 0.2 N 19 24 10 13 - - 5.8
01/03:00pm 11.4 8.0 11.1 98 0.2 N 20 30 11 16 - - 5.8
01/02:30pm 11.5 8.7 11.2 98 0.2 N 17 22 9 12 - - 5.8
01/02:06pm 11.7 5.5 11.4 98 0.2 N 35 59 19 32 - - 5.0
01/02:00pm 11.9 6.2 11.7 99 0.1 N 33 50 18 27 - - 5.0
01/01:30pm 11.7 7.2 11.4 98 0.2 N 26 43 14 23 - - 4.8
01/01:00pm 11.8 7.7 11.6 99 0.1 N 24 41 13 22 - - 4.6
01/12:30pm 11.5 7.0 11.3 99 0.1 N 26 35 14 19 - - 4.6
01/12:00pm 11.5 7.7 11.3 99 0.1 N 22 33 12 18 - - 4.0
01/11:30am 11.6 7.1 11.4 99 0.1 N 26 35 14 19 - - 2.8
01/11:00am 11.6 7.5 11.4 99 0.1 N 24 32 13 17 - - 2.2
01/10:30am 11.7 7.2 11.5 99 0.1 N 26 33 14 18 - - 0.8
01/10:00am 11.8 8.5 11.6 99 0.1 N 20 26 11 14 - - 0.2
01/09:30am 11.6 8.4 11.4 99 0.1 N 19 26 10 14 - - 0.0
01/09:00am 11.4 8.0 11.2 99 0.1 N 20 26 11 14 - - 0.4
01/08:30am 11.3 7.1 11.0 98 0.2 N 24 28 13 15 - - 0.2
01/08:00am 11.4 7.2 11.2 99 0.1 N 24 32 13 17 - - 0.2
01/07:30am 10.7 7.3 10.5 99 0.1 N 19 24 10 13 - - 0.0
01/07:00am 10.1 7.6 9.8 98 0.2 NNW 13 20 7 11 - - 0.0
01/06:30am 10.2 7.8 9.9 98 0.2 N 13 17 7 9 - - 0.0
01/06:00am 10.5 7.4 10.2 98 0.2 N 17 20 9 11 - - 0.0
01/05:30am 10.2 6.6 9.9 98 0.2 N 19 20 10 11 - - 0.0
01/05:00am 9.6 6.3 9.5 99 0.1 N 17 20 9 11 - - 0.0
01/04:30am 9.8 6.9 9.5 98 0.2 NNW 15 20 8 11 - - 0.0
01/04:00am 10.4 7.6 10.1 98 0.2 NNW 15 19 8 10 - - 0.0
01/03:30am 10.5 7.8 10.2 98 0.2 N 15 19 8 10 - - 0.0
01/03:00am 10.0 6.4 9.7 98 0.2 NW 19 20 10 11 - - 0.0
01/02:30am 10.2 7.8 9.9 98 0.2 N 13 17 7 9 - - 0.0
01/02:00am 10.4 8.4 10.1 98 0.2 NNW 11 15 6 8 - - 0.0
01/01:30am 10.8 8.9 10.5 98 0.2 NNW 11 15 6 8 - - 0.0
01/01:00am 10.8 8.1 10.5 98 0.2 NNW 15 20 8 11 - - 0.0
01/12:30am 10.4 8.0 10.1 98 0.2 NNW 13 19 7 10 - - 0.0
01/12:00am 10.5 7.7 10.0 97 0.3 NNW 15 20 8 11 - - 0.0
 
Date/Time
EST
Temp
°C
App
Temp
°C
Dew
Point
Rel
Hum
%
Delta-T
°C
Wind Press
QNH
hPa
Press
MSL
hPa
Rain
since 9 am
mm
Dir
 
Spd
km/h
Gust
km/h
Spd
kts
Gust
kts
31/11:30pm 10.8 7.7 10.3 97 0.3 NNW 17 22 9 12 - - 0.0
31/11:00pm 10.7 7.6 10.4 98 0.2 NNW 17 20 9 11 - - 0.0
31/10:30pm 9.9 7.4 9.8 99 0.1 NNW 13 17 7 9 - - 0.0
31/10:00pm 9.6 7.4 9.5 99 0.1 NNW 11 15 6 8 - - 0.0
31/09:30pm 9.3 6.7 9.2 99 0.0 N 13 15 7 8 - - 0.0
31/09:00pm 9.9 7.0 9.8 99 0.1 N 15 17 8 9 - - 0.0
31/08:30pm 10.2 8.2 10.0 99 0.1 N 11 15 6 8 - - 0.0
31/08:00pm 10.0 6.8 9.9 99 0.1 N 17 19 9 10 - - 0.0
31/07:30pm 9.8 6.9 9.7 99 0.1 NNW 15 17 8 9 - - 0.0
31/07:00pm 9.7 8.3 9.4 98 0.2 N 7 9 4 5 - - 0.0
31/06:30pm 10.6 9.4 10.3 98 0.2 NNW 7 7 4 4 - - 0.0
31/06:00pm 11.4 10.6 11.1 98 0.2 NNW 6 7 3 4 - - 0.0
31/05:30pm 12.4 11.7 12.1 98 0.2 NNW 7 9 4 5 - - 0.0
31/05:00pm 12.8 12.2 12.3 97 0.3 NNW 7 11 4 6 - - 0.0
31/04:30pm 13.0 12.5 12.5 97 0.3 NW 7 9 4 5 - - 0.0
31/04:00pm 13.1 11.8 12.6 97 0.3 NW 11 13 6 7 - - 0.0
31/03:30pm 12.9 11.2 12.4 97 0.3 NW 13 17 7 9 - - 0.0
31/03:00pm 13.0 11.3 12.5 97 0.3 NW 13 19 7 10 - - 0.0
31/02:30pm 13.2 10.8 12.7 97 0.3 NNW 17 24 9 13 - - 0.0
31/02:00pm 13.1 9.7 12.6 97 0.3 NNW 22 32 12 17 - - 0.0
31/01:30pm 13.3 10.6 12.8 97 0.3 NW 19 24 10 13 - - 0.0
31/01:00pm 13.4 9.8 12.9 97 0.3 NNW 24 32 13 17 - - 0.0
31/12:30pm 13.4 9.3 12.6 95 0.4 N 26 35 14 19 - - 0.0
31/12:00pm 13.4 9.3 12.6 95 0.4 N 26 30 14 16 - - 0.0
31/11:30am 13.0 8.5 12.5 97 0.3 N 28 30 15 16 - - 0.0
31/11:00am 12.3 7.9 11.8 97 0.3 N 26 33 14 18 - - 0.0
31/10:30am 12.2 8.6 11.7 97 0.3 N 22 30 12 16 - - 0.0
31/10:00am 11.8 8.7 11.5 98 0.2 N 19 26 10 14 - - 0.0
31/09:30am 11.3 8.7 10.8 97 0.3 N 15 17 8 9 - - 0.0
31/09:00am 10.7 8.0 10.4 98 0.2 N 15 20 8 11 - - 0.0
31/08:30am 10.3 6.6 10.0 98 0.2 N 20 22 11 12 - - 0.0
31/08:00am 9.8 6.1 9.5 98 0.2 N 19 22 10 12 - - 0.0
31/07:30am 9.3 6.2 9.0 98 0.1 N 15 19 8 10 - - 0.0
31/07:00am 8.8 6.0 8.7 99 0.0 N 13 15 7 8 - - 0.0
31/06:30am 8.5 6.0 8.4 99 0.0 N 11 13 6 7 - - 0.0
31/06:00am 8.4 5.9 8.3 99 0.0 N 11 15 6 8 - - 0.0
31/05:30am 8.2 5.7 8.1 99 0.0 N 11 15 6 8 - - 0.0
31/05:00am 7.6 5.3 7.6 100 0.0 NNW 9 15 5 8 - - 0.0
31/04:30am 6.9 4.1 6.9 100 0.0 N 11 15 6 8 - - 0.0
31/04:00am 6.5 3.6 6.5 100 0.0 N 11 15 6 8 - - 0.0
31/03:30am 5.6 2.1 5.6 100 0.0 N 13 15 7 8 - - 0.0
31/03:00am 5.3 2.5 5.3 100 0.0 N 9 11 5 6 - - 0.0
31/02:30am 4.2 0.5 4.2 100 0.0 N 13 20 7 11 - - 0.0
31/02:00am 4.1 1.5 4.0 99 0.0 N 7 9 4 5 - - 0.0
31/01:30am 3.6 1.1 3.5 99 0.0 N 6 9 3 5 - - 0.0
31/01:00am 4.0 1.3 3.9 99 0.0 N 7 9 4 5 - - 0.0
31/12:30am 4.1 1.6 3.8 98 0.1 NE 6 7 3 4 - - 0.0
31/12:00am 4.5 1.9 4.2 98 0.1 N 7 9 4 5 - - 0.0
 
Date/Time
EST
Temp
°C
App
Temp
°C
Dew
Point
Rel
Hum
%
Delta-T
°C
Wind Press
QNH
hPa
Press
MSL
hPa
Rain
since 9 am
mm
Dir
 
Spd
km/h
Gust
km/h
Spd
kts
Gust
kts
30/11:30pm 4.8 2.3 4.5 98 0.1 N 7 11 4 6 - - 0.0
30/11:00pm 6.3 4.2 6.0 98 0.1 NNW 6 9 3 5 - - 0.0
30/10:30pm 6.3 3.7 6.0 98 0.1 WNW 9 11 5 6 - - 0.0
30/10:00pm 6.0 3.3 5.7 98 0.1 NW 9 13 5 7 - - 0.0
30/09:30pm 5.7 2.6 5.4 98 0.1 NW 11 15 6 8 - - 0.0

Other Formats:

Comma delimited format used in spreadsheet applications
http://www.bom.gov.au/fwo/IDT60801/IDT60801.95969.axf

JavaScript Object Notation format (JSON) in row-major order
http://www.bom.gov.au/fwo/IDT60801/IDT60801.95969.json